createdAt,value
2023-04-05T00:01:56.686Z,3.37
2023-04-05T00:04:24.161Z,3.33
2023-04-05T00:06:52.555Z,3.07
2023-04-05T00:09:20.722Z,2.93
2023-04-05T00:11:48.483Z,4.00
2023-04-05T00:14:15.398Z,3.20
2023-04-05T00:16:42.841Z,4.23
2023-04-05T00:19:12.809Z,3.67
2023-04-05T00:21:39.994Z,3.43
2023-04-05T00:24:08.093Z,2.67
2023-04-05T00:26:35.031Z,3.40
2023-04-05T00:29:01.658Z,2.97
2023-04-05T00:31:29.302Z,3.20
2023-04-05T00:33:56.176Z,2.90
2023-04-05T00:36:22.946Z,3.20
2023-04-05T00:38:49.840Z,3.43
2023-04-05T00:41:16.920Z,3.13
2023-04-05T00:43:44.060Z,3.43
2023-04-05T00:46:11.045Z,3.20
2023-04-05T00:48:38.852Z,3.33
2023-04-05T00:51:09.475Z,3.57
2023-04-05T00:53:37.601Z,3.30
2023-04-05T00:56:05.070Z,3.30
2023-04-05T00:58:32.071Z,3.00
2023-04-05T01:04:11.380Z,3.50
2023-04-05T01:24:28.867Z,3.00
2023-04-05T01:27:10.270Z,3.60
2023-04-05T01:29:47.349Z,3.60
2023-04-05T01:32:24.763Z,3.20
2023-04-05T01:35:04.385Z,3.20
2023-04-05T01:37:34.154Z,3.60
2023-04-05T01:40:01.793Z,3.60
2023-04-05T01:42:29.388Z,3.53
2023-04-05T01:44:57.407Z,3.20
2023-04-05T01:47:24.470Z,3.13
2023-04-05T01:49:53.771Z,3.80
2023-04-05T01:52:21.446Z,3.27
2023-04-05T01:54:49.386Z,3.23
2023-04-05T01:57:16.176Z,3.47
2023-04-05T01:59:42.768Z,3.90
2023-04-05T02:02:09.396Z,3.57
2023-04-05T02:04:36.081Z,3.53
2023-04-05T02:07:03.659Z,3.87
2023-04-05T02:09:30.274Z,3.43
2023-04-05T02:11:57.253Z,3.37
2023-04-05T02:14:25.186Z,3.33
2023-04-05T02:16:55.670Z,3.90
2023-04-05T02:19:23.373Z,3.70
2023-04-05T02:21:52.586Z,3.70
2023-04-05T02:24:20.307Z,3.73
2023-04-05T02:26:47.286Z,3.90
2023-04-05T02:29:14.046Z,4.00
2023-04-05T02:31:42.237Z,3.20
2023-04-05T02:34:11.627Z,3.53
2023-04-05T02:36:38.388Z,3.50
2023-04-05T02:39:04.984Z,3.77
2023-04-05T02:41:31.604Z,3.50
2023-04-05T02:43:59.903Z,3.60
2023-04-05T02:46:29.720Z,3.23
2023-04-05T02:48:57.075Z,3.83
2023-04-05T02:51:27.960Z,3.27
2023-04-05T02:53:54.920Z,3.63
2023-04-05T02:56:22.063Z,3.50
2023-04-05T02:58:49.393Z,3.73
2023-04-05T03:01:22.637Z,3.47
2023-04-05T03:03:49.923Z,4.10
2023-04-05T03:06:16.741Z,4.73
2023-04-05T03:08:49.342Z,4.03
2023-04-05T03:11:22.934Z,3.87
2023-04-05T03:13:53.162Z,3.67
2023-04-05T03:16:34.352Z,3.93
2023-04-05T03:19:07.924Z,3.57
2023-04-05T03:21:37.697Z,3.67
2023-04-05T03:24:11.671Z,3.60
2023-04-05T03:26:41.120Z,5.90
2023-04-05T03:29:08.114Z,4.90
2023-04-05T03:31:37.952Z,3.90
2023-04-05T03:34:08.488Z,3.73
2023-04-05T03:36:43.021Z,3.43
2023-04-05T03:39:21.028Z,3.07
2023-04-05T03:41:48.257Z,3.10
2023-04-05T03:44:17.263Z,3.00
2023-04-05T03:46:45.153Z,3.63
2023-04-05T03:49:13.693Z,3.77
2023-04-05T03:51:40.301Z,3.37
2023-04-05T03:54:06.891Z,3.40
2023-04-05T03:56:35.327Z,3.37
2023-04-05T03:59:10.332Z,3.40
2023-04-05T04:01:38.723Z,3.47
2023-04-05T04:04:06.256Z,3.37
2023-04-05T04:06:33.218Z,4.03
2023-04-05T04:09:00.012Z,4.40
2023-04-05T04:11:28.606Z,4.00
2023-04-05T04:13:55.586Z,3.57
2023-04-05T04:16:35.317Z,3.30
2023-04-05T04:19:20.475Z,3.60
2023-04-05T04:22:10.031Z,3.40
2023-04-05T04:25:10.829Z,3.30
2023-04-05T04:27:54.201Z,3.00
2023-04-05T04:30:50.053Z,2.90
2023-04-05T04:33:37.836Z,3.70
2023-04-05T04:36:18.179Z,3.50
2023-04-05T04:38:57.035Z,3.47
2023-04-05T04:41:44.808Z,3.87
2023-04-05T04:44:37.749Z,3.60
2023-04-05T04:47:33.791Z,3.70
2023-04-05T04:50:19.889Z,3.40
2023-04-05T04:52:47.741Z,3.70
2023-04-05T04:55:14.480Z,3.20
2023-04-05T04:57:42.507Z,3.20
2023-04-05T05:00:14.832Z,4.13
2023-04-05T05:02:44.173Z,3.30
2023-04-05T05:05:14.305Z,3.23
2023-04-05T05:07:41.907Z,3.43
2023-04-05T05:10:10.703Z,4.20
2023-04-05T05:12:38.796Z,3.80
2023-04-05T05:15:06.046Z,3.50
2023-04-05T05:17:32.838Z,4.57
2023-04-05T05:20:04.284Z,3.33
2023-04-05T05:22:31.345Z,3.23
2023-04-05T05:24:57.958Z,4.50
2023-04-05T05:27:24.619Z,3.60
2023-04-05T05:29:51.294Z,4.00
2023-04-05T05:32:17.893Z,3.73
2023-04-05T05:34:45.059Z,3.70
2023-04-05T05:37:12.700Z,4.10
2023-04-05T05:39:39.544Z,3.83
2023-04-05T05:42:06.693Z,4.57
2023-04-05T05:44:33.319Z,4.83
2023-04-05T05:46:59.925Z,4.77
2023-04-05T05:49:26.666Z,4.40
2023-04-05T05:51:53.611Z,4.27
2023-04-05T05:54:20.527Z,4.23
2023-04-05T05:56:47.133Z,4.10
2023-04-05T05:59:13.958Z,4.53
2023-04-05T06:01:42.820Z,4.03
2023-04-05T06:04:09.802Z,4.60
2023-04-05T06:06:37.888Z,4.10
2023-04-05T06:09:04.705Z,4.40
2023-04-05T06:11:31.305Z,4.53
2023-04-05T06:13:58.127Z,4.37
2023-04-05T06:16:24.851Z,5.00
2023-04-05T06:18:51.534Z,4.27
2023-04-05T06:21:18.185Z,4.80
2023-04-05T06:23:44.851Z,4.80
2023-04-05T06:26:26.995Z,4.30
2023-04-05T06:28:54.331Z,4.57
2023-04-05T06:31:26.365Z,5.30
2023-04-05T06:33:52.964Z,4.17
2023-04-05T06:36:19.593Z,3.73
2023-04-05T06:38:46.608Z,4.07
2023-04-05T06:41:13.525Z,3.90
2023-04-05T06:43:40.292Z,3.83
2023-04-05T06:46:11.584Z,4.53
2023-04-05T06:48:39.743Z,4.67
2023-04-05T06:51:06.444Z,5.10
2023-04-05T06:53:33.092Z,4.87
2023-04-05T06:56:00.254Z,4.30
2023-04-05T06:58:27.662Z,4.90
2023-04-05T07:00:54.733Z,4.40
2023-04-05T07:03:21.435Z,5.27
2023-04-05T07:05:56.798Z,4.97
2023-04-05T07:08:23.826Z,5.03
2023-04-05T07:10:51.396Z,4.70
2023-04-05T07:13:19.330Z,5.17
2023-04-05T07:15:46.126Z,5.07
2023-04-05T07:18:15.498Z,5.40
2023-04-05T07:20:42.522Z,5.17
2023-04-05T07:23:09.425Z,5.93
2023-04-05T07:25:36.126Z,4.83
2023-04-05T07:28:02.751Z,4.57
2023-04-05T07:30:32.009Z,4.03
2023-04-05T07:32:58.897Z,4.10
2023-04-05T07:35:25.735Z,4.13
2023-04-05T07:37:52.694Z,4.63
2023-04-05T07:40:19.438Z,4.47
2023-04-05T07:42:46.058Z,3.90
2023-04-05T07:45:12.696Z,5.00
2023-04-05T07:47:39.388Z,4.50
2023-04-05T07:50:07.140Z,7.00
2023-04-05T07:52:33.796Z,5.17
2023-04-05T07:55:00.390Z,4.83
2023-04-05T07:57:27.321Z,5.13
2023-04-05T07:59:55.649Z,5.23
2023-04-05T08:02:22.409Z,3.77
2023-04-05T08:04:49.045Z,3.70
2023-04-05T08:07:15.700Z,4.07
2023-04-05T08:09:42.314Z,4.43
2023-04-05T08:12:11.256Z,4.10
2023-04-05T08:14:38.020Z,4.00
2023-04-05T08:17:04.729Z,4.50
2023-04-05T08:19:31.351Z,4.20
2023-04-05T08:21:58.021Z,6.63
2023-04-05T08:24:24.771Z,3.70
2023-04-05T08:26:51.430Z,5.37
2023-04-05T08:29:18.025Z,7.13
2023-04-05T08:31:44.780Z,4.63
2023-04-05T08:34:11.515Z,4.50
2023-04-05T08:36:38.163Z,3.73
2023-04-05T08:39:04.734Z,4.80
2023-04-05T08:41:37.358Z,6.27
2023-04-05T08:44:05.833Z,7.97
2023-04-05T08:46:34.784Z,7.80
2023-04-05T08:49:08.778Z,4.17
2023-04-05T08:51:41.720Z,3.70
2023-04-05T08:54:08.358Z,4.13
2023-04-05T08:56:36.125Z,4.77
2023-04-05T08:59:07.899Z,4.07
2023-04-05T09:01:38.987Z,4.30
2023-04-05T09:04:07.611Z,3.80
2023-04-05T09:06:36.476Z,4.30
2023-04-05T09:09:07.658Z,6.37
2023-04-05T09:11:35.823Z,5.00
2023-04-05T09:14:04.929Z,5.50
2023-04-05T09:16:36.902Z,4.90
2023-04-05T09:19:04.020Z,8.17
2023-04-05T09:21:57.626Z,5.40
2023-04-05T09:24:43.735Z,8.37
2023-04-05T09:27:11.675Z,4.60
2023-04-05T09:29:40.566Z,5.40
2023-04-05T09:32:09.413Z,3.70
2023-04-05T09:34:39.057Z,3.27
2023-04-05T09:37:19.891Z,5.30
2023-04-05T09:39:49.742Z,4.10
2023-04-05T09:42:19.254Z,4.17
2023-04-05T09:45:02.674Z,4.03
2023-04-05T09:47:36.526Z,4.00
2023-04-05T09:50:15.574Z,3.40
2023-04-05T09:52:43.552Z,3.60
2023-04-05T09:55:10.654Z,3.30
2023-04-05T09:57:39.506Z,3.00
2023-04-05T10:00:16.837Z,3.07
2023-04-05T10:02:43.559Z,4.20
2023-04-05T10:05:13.479Z,3.83
2023-04-05T10:07:43.183Z,3.70
2023-04-05T10:10:12.346Z,5.47
2023-04-05T10:12:45.126Z,5.47
2023-04-05T10:15:14.209Z,5.93
2023-04-05T10:18:03.465Z,6.70
2023-04-05T10:20:33.355Z,7.20
2023-04-05T10:23:01.910Z,4.80
2023-04-05T10:25:46.806Z,4.30
2023-04-05T10:28:36.280Z,4.13
2023-04-05T10:31:37.712Z,3.97
2023-04-05T10:34:06.651Z,5.40
2023-04-05T10:36:49.110Z,4.27
2023-04-05T10:39:30.412Z,5.57
2023-04-05T10:42:01.443Z,7.10
2023-04-05T10:44:34.882Z,5.43
2023-04-05T10:47:04.197Z,4.27
2023-04-05T10:49:39.265Z,5.33
2023-04-05T10:52:06.814Z,6.20
2023-04-05T10:54:36.373Z,5.80
2023-04-05T10:57:06.948Z,4.73
2023-04-05T10:59:39.958Z,6.80
2023-04-05T11:02:07.187Z,8.40
2023-04-05T11:04:34.761Z,5.10
2023-04-05T11:07:12.990Z,4.50
2023-04-05T11:09:52.499Z,5.20
2023-04-05T11:12:19.279Z,3.90
2023-04-05T11:14:46.011Z,4.70
2023-04-05T11:17:29.032Z,5.93
2023-04-05T11:20:05.453Z,7.73
2023-04-05T11:22:32.137Z,4.80
2023-04-05T11:25:03.163Z,5.23
2023-04-05T11:27:32.450Z,4.03
2023-04-05T11:30:00.923Z,3.80
2023-04-05T11:32:43.467Z,4.20
2023-04-05T11:35:14.517Z,3.87
2023-04-05T11:38:07.928Z,3.97
2023-04-05T11:40:36.397Z,3.80
2023-04-05T11:43:11.321Z,4.30
2023-04-05T11:45:39.694Z,3.77
2023-04-05T11:48:07.641Z,4.10
2023-04-05T11:50:35.913Z,4.10
2023-04-05T11:53:13.064Z,4.23
2023-04-05T11:55:44.465Z,3.83
2023-04-05T11:58:12.368Z,5.13
2023-04-05T12:00:40.543Z,4.23
2023-04-05T12:03:11.841Z,4.10
2023-04-05T12:06:06.000Z,3.80
2023-04-05T12:08:41.760Z,4.17
2023-04-05T12:11:10.593Z,4.33
2023-04-05T12:13:38.533Z,3.90
2023-04-05T12:16:07.045Z,3.87
2023-04-05T12:18:35.703Z,4.00
2023-04-05T12:21:08.696Z,3.83
2023-04-05T12:23:37.156Z,3.70
2023-04-05T12:26:06.296Z,3.90
2023-04-05T12:28:53.051Z,3.50
2023-04-05T12:31:45.782Z,3.77
2023-04-05T12:34:14.618Z,4.00
2023-04-05T12:36:46.301Z,3.40
2023-04-05T12:39:12.886Z,3.73
2023-04-05T12:41:39.657Z,4.30
2023-04-05T12:44:12.361Z,4.10
2023-04-05T12:46:47.469Z,4.10
2023-04-05T12:49:18.787Z,5.70
2023-04-05T12:51:47.006Z,10.63
2023-04-05T12:54:14.871Z,12.33
2023-04-05T12:56:42.311Z,8.70
2023-04-05T12:59:08.982Z,5.80
2023-04-05T13:01:35.893Z,5.00
2023-04-05T13:04:15.653Z,6.83
2023-04-05T13:06:44.778Z,6.27
2023-04-05T13:09:11.407Z,5.47
2023-04-05T13:11:38.051Z,5.73
2023-04-05T13:14:04.641Z,5.30
2023-04-05T13:16:31.297Z,7.40
2023-04-05T13:18:57.894Z,4.43
2023-04-05T13:21:24.639Z,5.53
2023-04-05T13:23:51.285Z,7.03
2023-04-05T13:26:17.914Z,5.17
2023-04-05T13:28:44.518Z,9.87
2023-04-05T13:31:11.683Z,7.60
2023-04-05T13:33:39.616Z,8.07
2023-04-05T13:36:06.570Z,24.23
2023-04-05T13:38:33.195Z,6.57
2023-04-05T13:40:59.809Z,8.77
2023-04-05T13:43:27.923Z,5.97
2023-04-05T13:45:54.573Z,7.13
2023-04-05T13:48:21.184Z,12.47
2023-04-05T13:50:48.022Z,6.63
2023-04-05T13:53:15.718Z,8.47
2023-04-05T13:55:42.443Z,6.70
2023-04-05T13:58:09.256Z,8.67
2023-04-05T14:00:35.860Z,9.97
2023-04-05T14:03:02.600Z,6.40
2023-04-05T14:05:29.295Z,6.30
2023-04-05T14:07:55.892Z,6.27
2023-04-05T14:10:23.822Z,7.53
2023-04-05T14:12:50.515Z,15.33
2023-04-05T14:15:17.318Z,8.70
2023-04-05T14:17:44.145Z,8.30
2023-04-05T14:20:11.742Z,12.90
2023-04-05T14:22:38.475Z,6.87
2023-04-05T14:25:08.031Z,7.97
2023-04-05T14:27:37.527Z,13.53
2023-04-05T14:30:04.632Z,9.70
2023-04-05T14:32:33.781Z,10.17
2023-04-05T14:35:00.780Z,8.40
2023-04-05T14:37:27.442Z,7.00
2023-04-05T14:39:54.046Z,7.07
2023-04-05T14:42:21.598Z,9.70
2023-04-05T14:44:48.386Z,8.10
2023-04-05T14:47:14.973Z,7.77
2023-04-05T14:49:41.650Z,10.80
2023-04-05T14:52:08.319Z,17.93
2023-04-05T14:54:34.949Z,16.83
2023-04-05T14:57:01.586Z,8.57
2023-04-05T14:59:28.331Z,8.30
2023-04-05T15:01:55.356Z,7.50
2023-04-05T15:04:22.015Z,7.47
2023-04-05T15:06:48.806Z,8.43
2023-04-05T15:09:15.526Z,11.27
2023-04-05T15:11:42.257Z,8.83
2023-04-05T15:14:13.429Z,11.73
2023-04-05T15:16:47.955Z,10.07
2023-04-05T15:19:14.650Z,9.43
2023-04-05T15:21:42.694Z,7.97
2023-04-05T15:24:10.532Z,14.00
2023-04-05T15:26:37.215Z,8.17
2023-04-05T15:29:03.890Z,10.13
2023-04-05T15:31:34.181Z,11.80
2023-04-05T15:34:01.456Z,7.17
2023-04-05T15:36:28.389Z,7.17
2023-04-05T15:38:55.379Z,7.80
2023-04-05T15:41:22.216Z,7.43
2023-04-05T15:43:49.165Z,10.40
2023-04-05T15:46:15.993Z,6.83
2023-04-05T15:48:43.965Z,6.30
2023-04-05T15:51:12.001Z,5.90
2023-04-05T15:53:38.610Z,5.50
2023-04-05T15:56:05.575Z,5.10
2023-04-05T15:58:32.212Z,6.70
2023-04-05T16:00:58.871Z,5.23
2023-04-05T16:03:25.832Z,5.53
2023-04-05T16:05:52.731Z,9.87
2023-04-05T16:08:19.321Z,7.03
2023-04-05T16:10:45.989Z,8.50
2023-04-05T16:13:12.664Z,7.10
2023-04-05T16:15:39.377Z,8.63
2023-04-05T16:18:06.743Z,8.20
2023-04-05T16:20:33.445Z,6.80
2023-04-05T16:23:00.412Z,6.67
2023-04-05T16:25:27.111Z,6.87
2023-04-05T16:27:53.957Z,7.23
2023-04-05T16:30:21.072Z,8.10
2023-04-05T16:32:50.256Z,6.60
2023-04-05T16:35:16.914Z,6.30
2023-04-05T16:37:43.995Z,5.90
2023-04-05T16:40:11.681Z,5.90
2023-04-05T16:42:39.373Z,7.70
2023-04-05T16:45:06.759Z,6.03
2023-04-05T16:47:33.468Z,6.00
2023-04-05T16:50:00.280Z,5.20
2023-04-05T16:52:31.559Z,5.53
2023-04-05T16:54:58.118Z,6.17
2023-04-05T16:57:24.680Z,6.10
2023-04-05T16:59:51.614Z,6.80
2023-04-05T17:02:18.534Z,5.40
2023-04-05T17:04:45.525Z,7.27
2023-04-05T17:07:12.237Z,5.10
2023-04-05T17:09:38.866Z,4.87
2023-04-05T17:12:05.925Z,5.23
2023-04-05T17:14:32.621Z,5.13
2023-04-05T17:16:59.242Z,4.73
2023-04-05T17:19:26.198Z,5.20
2023-04-05T17:21:53.139Z,4.03
2023-04-05T17:24:20.141Z,4.80
2023-04-05T17:26:47.065Z,4.73
2023-04-05T17:29:13.956Z,5.30
2023-04-05T17:31:42.092Z,7.50
2023-04-05T17:34:12.996Z,5.63
2023-04-05T17:36:40.247Z,5.63
2023-04-05T17:39:07.364Z,5.03
2023-04-05T17:41:34.104Z,7.10
2023-04-05T17:44:00.830Z,6.53
2023-04-05T17:46:39.770Z,5.67
2023-04-05T17:49:08.296Z,5.50
2023-04-05T17:51:35.312Z,5.70
2023-04-05T17:54:01.997Z,5.53
2023-04-05T17:56:28.792Z,5.53
2023-04-05T17:58:55.678Z,6.57
2023-04-05T18:01:22.340Z,5.53
2023-04-05T18:03:49.027Z,4.87
2023-04-05T18:06:17.253Z,4.87
2023-04-05T18:08:43.872Z,4.70
2023-04-05T18:11:10.556Z,5.00
2023-04-05T18:13:37.208Z,7.00
2023-04-05T18:16:03.973Z,9.60
2023-04-05T18:18:30.732Z,6.70
2023-04-05T18:21:01.706Z,4.87
2023-04-05T18:23:28.757Z,4.87
2023-04-05T18:25:55.477Z,4.67
2023-04-05T18:28:23.603Z,6.00
2023-04-05T18:30:51.593Z,5.33
2023-04-05T18:33:18.603Z,4.83
2023-04-05T18:35:49.804Z,5.07
2023-04-05T18:38:16.639Z,4.33
2023-04-05T18:40:43.358Z,4.00
2023-04-05T18:43:10.295Z,5.60
2023-04-05T18:45:38.401Z,4.33
2023-04-05T18:48:05.465Z,4.23
2023-04-05T18:50:32.341Z,4.40
2023-04-05T18:52:58.924Z,3.97
2023-04-05T18:55:25.764Z,4.97
2023-04-05T18:57:52.451Z,4.30
2023-04-05T19:00:19.478Z,4.17
2023-04-05T19:02:46.243Z,4.40
2023-04-05T19:05:13.070Z,5.83
2023-04-05T19:07:39.710Z,5.43
2023-04-05T19:10:07.130Z,4.43
2023-04-05T19:12:33.789Z,4.30
2023-04-05T19:15:00.504Z,4.17
2023-04-05T19:17:27.644Z,4.87
2023-04-05T19:19:54.291Z,4.80
2023-04-05T19:22:21.002Z,5.03
2023-04-05T19:24:47.692Z,4.80
2023-04-05T19:27:14.369Z,5.33
2023-04-05T19:29:41.010Z,4.77
2023-04-05T19:32:08.954Z,5.67
2023-04-05T19:34:37.801Z,4.93
2023-04-05T19:37:04.898Z,4.93
2023-04-05T19:39:33.635Z,5.07
2023-04-05T19:42:00.828Z,5.17
2023-04-05T19:44:57.699Z,4.97
2023-04-05T19:47:29.973Z,4.37
2023-04-05T19:49:57.065Z,4.80
2023-04-05T19:52:40.598Z,4.90
2023-04-05T19:55:33.201Z,3.93
2023-04-05T19:58:02.107Z,5.93
2023-04-05T20:00:29.374Z,5.83
2023-04-05T20:02:56.167Z,6.27
2023-04-05T20:05:44.967Z,5.40
2023-04-05T20:08:11.861Z,5.07
2023-04-05T20:10:47.564Z,4.93
2023-04-05T20:13:17.044Z,6.10
2023-04-05T20:15:48.446Z,5.70
2023-04-05T20:18:26.767Z,5.40
2023-04-05T20:20:54.317Z,5.23
2023-04-05T20:23:22.509Z,5.47
2023-04-05T20:25:51.070Z,5.43
2023-04-05T20:28:34.920Z,5.37
2023-04-05T20:31:24.028Z,6.40
2023-04-05T20:33:56.211Z,5.77
2023-04-05T20:36:33.965Z,5.53
2023-04-05T20:39:02.549Z,5.80
2023-04-05T20:41:29.812Z,5.20
2023-04-05T20:43:56.610Z,6.00
2023-04-05T20:46:24.095Z,6.00
2023-04-05T20:48:51.076Z,5.40
2023-04-05T20:51:17.765Z,5.07
2023-04-05T20:53:44.463Z,6.10
2023-04-05T20:56:12.022Z,6.03
2023-04-05T20:58:40.459Z,6.60
2023-04-05T21:01:08.619Z,6.47
2023-04-05T21:03:38.230Z,5.80
2023-04-05T21:06:08.047Z,6.33
2023-04-05T21:08:36.490Z,6.00
2023-04-05T21:11:03.591Z,6.00
2023-04-05T21:13:30.400Z,6.00
2023-04-05T21:15:58.683Z,7.00
2023-04-05T21:18:25.571Z,5.67
2023-04-05T21:20:53.587Z,6.03
2023-04-05T21:23:27.563Z,6.00
2023-04-05T21:25:55.416Z,6.03
2023-04-05T21:28:22.619Z,6.17
2023-04-05T21:30:49.230Z,6.53
2023-04-05T21:33:16.713Z,5.90
2023-04-05T21:35:43.586Z,6.80
2023-04-05T21:38:11.615Z,6.40
2023-04-05T21:40:39.730Z,6.47
2023-04-05T21:43:06.480Z,7.17
2023-04-05T21:45:33.129Z,6.67
2023-04-05T21:47:59.804Z,6.70
2023-04-05T21:50:27.236Z,6.60
2023-04-05T21:52:54.039Z,6.27
2023-04-05T21:55:20.871Z,6.80
2023-04-05T21:57:47.545Z,7.10
2023-04-05T22:00:15.486Z,7.67
2023-04-05T22:02:42.419Z,6.43
2023-04-05T22:05:09.792Z,6.60
2023-04-05T22:07:36.606Z,7.70
2023-04-05T22:10:04.027Z,6.57
2023-04-05T22:12:30.942Z,6.67
2023-04-05T22:14:57.678Z,6.70
2023-04-05T22:17:24.417Z,6.33
2023-04-05T22:19:51.148Z,6.37
2023-04-05T22:22:19.459Z,6.37
2023-04-05T22:24:46.273Z,5.75
2023-04-05T22:27:12.942Z,6.80
2023-04-05T22:29:39.834Z,6.37
2023-04-05T22:32:07.060Z,6.37
2023-04-05T22:34:33.823Z,6.90
2023-04-05T22:37:00.887Z,7.37
2023-04-05T22:39:27.770Z,8.40
2023-04-05T22:41:55.199Z,6.47
2023-04-05T22:44:22.021Z,7.07
2023-04-05T22:46:48.670Z,6.63
2023-04-05T22:49:15.410Z,6.63
2023-04-05T22:51:42.140Z,6.67
2023-04-05T22:54:08.883Z,6.63
2023-04-05T22:56:35.929Z,6.87
2023-04-05T22:59:02.585Z,6.60
2023-04-05T23:01:29.250Z,7.03
2023-04-05T23:03:55.962Z,6.80
2023-04-05T23:06:22.582Z,6.43
2023-04-05T23:08:49.231Z,7.10
2023-04-05T23:11:16.033Z,6.63
2023-04-05T23:13:42.785Z,6.60
2023-04-05T23:16:09.660Z,6.20
2023-04-05T23:18:36.444Z,6.70
2023-04-05T23:21:03.252Z,6.60
2023-04-05T23:23:29.904Z,7.80
2023-04-05T23:25:56.619Z,6.87
2023-04-05T23:28:23.281Z,6.47
2023-04-05T23:30:49.884Z,7.43
2023-04-05T23:33:16.544Z,7.00
2023-04-05T23:35:43.214Z,7.13
2023-04-05T23:38:09.957Z,7.00
2023-04-05T23:40:36.585Z,6.30
2023-04-05T23:43:03.252Z,6.70
2023-04-05T23:45:29.921Z,6.23
2023-04-05T23:47:56.605Z,7.07
2023-04-05T23:50:23.377Z,6.73
2023-04-05T23:52:50.126Z,7.20
2023-04-05T23:55:16.908Z,6.80
2023-04-05T23:57:43.768Z,10.87
